Time;durP1;ratioP1;P1;durP2;ratioP2;P2;SDS_P1;SDS_P2;PMS_P1;PMS_P2;Temp;Humidity;BMP_temperature;BMP_pressure;BME280_temperature;BME280_humidity;BME280_pressure;Samples;Min_cycle;Max_cycle;Signal;HPM_P1;HPM_P2
2022/10/27 07:13:42;;;;;;;10.18;8.35;;;;;;;11.28;100.00;100852.06;1789069;80;22979;-45
2022/10/27 07:16:09;;;;;;;11.95;8.10;;;;;;;11.29;100.00;100862.53;1786364;80;21115;-46
2022/10/27 07:18:37;;;;;;;13.30;8.00;;;;;;;11.29;100.00;100848.56;1785805;80;21131;-41
2022/10/27 07:21:05;;;;;;;17.48;9.05;;;;;;;11.29;100.00;100854.67;1786369;80;21390;-48
2022/10/27 07:23:32;;;;;;;13.32;8.00;;;;;;;11.29;100.00;100855.11;1781286;80;21079;-39
2022/10/27 07:25:59;;;;;;;10.88;8.08;;;;;;;11.31;100.00;100859.52;1776829;80;21012;-39
2022/10/27 07:34:25;;;;;;;10.65;7.60;;;;;;;11.41;100.00;100866.53;1800046;79;22851;-46
2022/10/27 07:36:51;;;;;;;12.33;8.08;;;;;;;11.39;100.00;100872.20;1758399;81;21030;-47
2022/10/27 07:39:18;;;;;;;10.88;7.85;;;;;;;11.39;100.00;100870.90;1752412;82;21024;-46
2022/10/27 07:41:45;;;;;;;17.50;7.92;;;;;;;11.39;100.00;100871.34;1747026;82;21468;-47
2022/10/27 07:44:12;;;;;;;12.60;7.90;;;;;;;11.40;100.00;100875.70;1737423;82;21066;-38
2022/10/27 07:46:38;;;;;;;12.45;7.87;;;;;;;11.42;100.00;100884.44;1742615;82;21036;-38
2022/10/27 07:49:05;;;;;;;13.45;7.92;;;;;;;11.43;100.00;100889.70;1751175;82;21014;-39
2022/10/27 07:51:31;;;;;;;10.68;7.03;;;;;;;11.43;100.00;100892.77;1750049;82;20982;-41
2022/10/27 07:53:58;;;;;;;10.23;7.12;;;;;;;11.43;100.00;100897.57;1746021;82;21603;-39
2022/10/27 07:56:24;;;;;;;10.08;6.60;;;;;;;11.44;100.00;100898.00;1740515;82;21064;-48
2022/10/27 08:02:52;;;;;;;9.10;5.85;;;;;;;11.45;100.00;100902.38;1746796;82;21092;-48
2022/10/27 08:05:18;;;;;;;12.78;6.50;;;;;;;11.47;100.00;100910.23;1722816;83;21115;-38
2022/10/27 08:07:45;;;;;;;8.33;6.00;;;;;;;11.48;100.00;100913.73;1724264;82;21124;-38
2022/10/27 08:10:12;;;;;;;8.43;5.95;;;;;;;11.50;100.00;100914.63;1736029;82;21040;-40
2022/10/27 08:12:43;;;;;;;14.78;7.42;;;;;;;11.51;100.00;100915.95;1721403;82;21108;-47
2022/10/27 08:15:10;;;;;;;13.30;6.53;;;;;;;11.55;100.00;100915.55;1707927;84;21053;-39
2022/10/27 08:17:38;;;;;;;12.73;6.55;;;;;;;11.56;100.00;100917.29;1730842;82;21060;-39
2022/10/27 08:20:07;;;;;;;9.00;5.42;;;;;;;11.56;100.00;100912.05;1728884;82;21483;-48
2022/10/27 08:22:34;;;;;;;13.25;6.08;;;;;;;11.55;100.00;100912.48;1721725;80;20994;-39
2022/10/27 08:25:00;;;;;;;9.03;5.53;;;;;;;11.57;100.00;100911.17;1741507;80;21646;-39
2022/10/27 08:27:27;;;;;;;9.73;5.97;;;;;;;11.59;100.00;100918.60;1742237;80;21504;-48
2022/10/27 08:29:54;;;;;;;10.05;5.33;;;;;;;11.61;100.00;100919.07;1745369;80;21037;-39
2022/10/27 08:32:20;;;;;;;12.00;5.87;;;;;;;11.64;100.00;100916.45;1739407;82;21025;-39
2022/10/27 08:34:47;;;;;;;11.40;4.78;;;;;;;11.67;100.00;100919.10;1736414;81;21025;-40
2022/10/27 08:37:13;;;;;;;8.85;5.10;;;;;;;11.75;100.00;100932.23;1734272;82;21680;-40
2022/10/27 08:39:40;;;;;;;8.38;4.75;;;;;;;11.83;100.00;100925.75;1734207;82;20981;-49
2022/10/27 08:42:30;;;;;;;9.85;5.53;;;;;;;11.91;100.00;100921.44;1734514;81;21059;-40
2022/10/27 08:45:07;;;;;;;8.13;4.62;;;;;;;11.98;100.00;100919.27;1655624;85;21014;-40
2022/10/27 08:47:34;;;;;;;9.38;4.90;;;;;;;12.06;100.00;100917.98;1658509;85;21502;-48
2022/10/27 08:50:05;;;;;;;6.92;4.65;;;;;;;12.12;100.00;100916.28;1651536;85;20982;-48
2022/10/27 08:52:50;;;;;;;8.57;4.60;;;;;;;12.18;98.87;100914.99;1658031;85;21060;-38
2022/10/27 08:55:28;;;;;;;6.28;4.67;;;;;;;12.23;98.98;100917.20;1660308;85;21062;-48
2022/10/27 08:58:05;;;;;;;7.10;4.40;;;;;;;12.31;98.67;100916.34;1655216;85;21083;-50
2022/10/27 09:00:40;;;;;;;7.83;3.90;;;;;;;12.38;98.56;100922.91;1655098;85;20991;-47
2022/10/27 09:03:44;;;;;;;7.20;4.10;;;;;;;12.44;98.26;100913.73;1635793;85;21136;-39
2022/10/27 09:06:23;;;;;;;8.98;4.95;;;;;;;12.51;96.82;100906.30;1670028;85;21423;-49
2022/10/27 09:09:13;;;;;;;5.97;4.37;;;;;;;12.55;95.47;100913.76;1664213;85;21033;-49
2022/10/27 09:11:54;;;;;;;6.72;4.42;;;;;;;12.55;95.12;100910.27;1657864;85;21622;-47
2022/10/27 09:14:48;;;;;;;9.23;4.40;;;;;;;12.54;94.30;100914.64;1663719;85;21131;-39
2022/10/27 09:17:27;;;;;;;6.22;4.03;;;;;;;12.53;95.12;100912.89;1655772;85;21514;-39
2022/10/27 09:20:00;;;;;;;5.05;3.75;;;;;;;12.59;94.20;100913.34;1648949;85;21020;-39
2022/10/27 09:22:27;;;;;;;11.10;4.28;;;;;;;12.60;93.96;100921.21;1717397;81;21474;-39
2022/10/27 09:25:01;;;;;;;7.08;4.45;;;;;;;12.63;93.47;100919.88;1726115;82;20978;-39
2022/10/27 09:27:28;;;;;;;5.25;3.62;;;;;;;12.66;93.01;100922.97;1729023;82;21040;-40
2022/10/27 09:29:55;;;;;;;6.65;4.05;;;;;;;12.64;92.11;100928.22;1727131;82;21397;-39
2022/10/27 09:32:28;;;;;;;31.62;16.97;;;;;;;12.64;93.09;100933.48;1732778;81;21077;-39
2022/10/27 09:35:02;;;;;;;8.13;4.40;;;;;;;12.66;92.92;100933.47;1736797;82;21066;-40
2022/10/27 09:37:32;;;;;;;8.08;4.35;;;;;;;12.67;92.85;100928.66;1733216;82;21452;-48
2022/10/27 09:39:59;;;;;;;6.65;4.25;;;;;;;12.68;93.35;100931.27;1677798;84;21387;-41
2022/10/27 09:42:29;;;;;;;8.20;4.37;;;;;;;12.74;93.30;100931.72;1728857;80;21149;-48
2022/10/27 09:44:59;;;;;;;7.78;4.35;;;;;;;12.77;92.18;100931.30;1708052;82;20950;-41
2022/10/27 09:47:33;;;;;;;6.67;4.17;;;;;;;12.81;92.70;100927.34;1727487;82;21114;-41
2022/10/27 09:50:01;;;;;;;5.65;3.58;;;;;;;12.85;92.90;100921.23;1728060;81;20978;-40
2022/10/27 09:52:42;;;;;;;7.67;3.75;;;;;;;12.93;93.32;100927.34;1689464;82;21017;-48
2022/10/27 09:55:09;;;;;;;6.53;3.90;;;;;;;13.01;92.95;100929.56;1736460;82;20970;-47
2022/10/27 09:57:38;;;;;;;6.50;4.20;;;;;;;13.08;92.39;100923.86;1735857;82;21623;-40
2022/10/27 10:00:20;;;;;;;6.83;3.60;;;;;;;13.14;91.66;100921.23;1732477;82;20956;-40
2022/10/27 10:03:05;;;;;;;6.22;4.58;;;;;;;13.18;90.73;100922.55;1731435;82;21057;-48
2022/10/27 10:05:36;;;;;;;8.20;5.20;;;;;;;13.21;90.11;100918.63;1724753;82;20933;-40
2022/10/27 10:08:23;;;;;;;14.90;8.68;;;;;;;13.28;90.96;100922.14;1733316;80;21016;-39
2022/10/27 10:10:58;;;;;;;10.60;4.05;;;;;;;13.36;90.86;100922.13;1729885;82;21017;-39
2022/10/27 10:13:30;;;;;;;10.20;3.87;;;;;;;13.43;89.67;100922.10;1732748;82;21608;-40
2022/10/27 10:16:14;;;;;;;7.40;4.10;;;;;;;13.50;89.45;100919.89;1668724;85;21589;-49
2022/10/27 10:19:05;;;;;;;6.05;3.22;;;;;;;13.52;88.27;100922.09;1705783;82;21485;-41
2022/10/27 10:21:52;;;;;;;5.80;3.25;;;;;;;13.52;88.01;100926.48;1736435;82;21058;-38
2022/10/27 10:24:32;;;;;;;5.60;3.27;;;;;;;13.49;87.86;100928.66;1737285;82;21078;-39
2022/10/27 10:27:01;;;;;;;5.37;3.50;;;;;;;13.47;88.37;100929.55;1676551;85;21063;-39
2022/10/27 10:29:35;;;;;;;5.83;3.20;;;;;;;13.42;88.25;100932.19;1675833;84;21014;-40
2022/10/27 10:32:13;;;;;;;3.95;2.85;;;;;;;13.42;88.84;100927.38;1685777;84;21080;-48
2022/10/27 10:34:42;;;;;;;8.03;3.65;;;;;;;13.41;88.81;100929.13;1686855;84;21568;-49
2022/10/27 10:37:31;;;;;;;8.45;3.37;;;;;;;13.40;88.61;100924.75;1681826;85;21600;-38
2022/10/27 10:40:27;;;;;;;10.95;3.75;;;;;;;13.41;88.30;100924.31;1688891;83;21516;-40
2022/10/27 10:43:13;;;;;;;5.22;3.70;;;;;;;13.40;88.56;100923.88;1688103;84;21574;-40
2022/10/27 10:45:39;;;;;;;5.37;3.35;;;;;;;13.42;88.15;100928.24;1686337;85;21478;-39
2022/10/27 10:48:18;;;;;;;4.95;3.20;;;;;;;13.42;88.04;100929.55;1688201;84;21105;-38
2022/10/27 10:50:46;;;;;;;5.53;3.40;;;;;;;13.42;88.06;100927.38;1687230;85;21473;-48
2022/10/27 10:53:24;;;;;;;8.13;3.40;;;;;;;13.45;88.52;100919.05;1687499;85;21124;-48
2022/10/27 10:55:53;;;;;;;4.53;3.02;;;;;;;13.48;88.05;100920.78;1685311;85;21009;-49
2022/10/27 10:58:21;;;;;;;4.33;3.20;;;;;;;13.47;88.47;100921.23;1683325;85;21053;-39
2022/10/27 11:01:00;;;;;;;4.87;3.30;;;;;;;13.48;88.36;100922.10;1687475;84;21018;-49
2022/10/27 11:03:32;;;;;;;4.05;3.67;;;;;;;13.46;87.65;100919.92;1685950;85;21077;-41
2022/10/27 11:06:01;;;;;;;5.20;3.87;;;;;;;13.45;87.83;100920.77;1687155;85;21064;-39
2022/10/27 11:08:39;;;;;;;6.40;3.40;;;;;;;13.51;86.92;100924.30;1687600;85;21464;-48
2022/10/27 11:11:15;;;;;;;5.72;3.22;;;;;;;13.56;86.39;100921.63;1689544;84;21049;-48
2022/10/27 11:13:52;;;;;;;10.40;3.30;;;;;;;13.63;86.80;100918.13;1693678;83;21046;-39
2022/10/27 11:16:19;;;;;;;6.03;3.05;;;;;;;13.75;85.56;100911.96;1686049;85;21531;-48
2022/10/27 11:19:01;;;;;;;8.50;2.65;;;;;;;13.85;85.60;100910.58;1687389;85;21449;-48
2022/10/27 11:22:04;;;;;;;6.05;3.20;;;;;;;13.90;84.61;100914.96;1689169;85;21496;-40
2022/10/27 11:25:00;;;;;;;5.40;3.62;;;;;;;13.95;83.59;100917.14;1688698;85;21077;-48
2022/10/27 11:27:31;;;;;;;4.58;3.00;;;;;;;13.91;82.33;100924.16;1683679;85;21100;-48
2022/10/27 11:30:04;;;;;;;4.62;3.22;;;;;;;13.85;83.10;100917.60;1725898;83;21575;-48
2022/10/27 11:32:42;;;;;;;;;;;;;;;13.81;83.37;100913.25;1728510;83;21544;-48
2022/10/27 11:35:31;;;;;;;4.75;3.33;;;;;;;13.80;83.89;100915.45;1735083;81;20473;-47
2022/10/27 11:38:27;;;;;;;7.05;3.90;;;;;;;13.81;84.52;100919.39;1737178;82;21057;-40
2022/10/27 11:41:09;;;;;;;9.23;3.92;;;;;;;13.82;83.80;100915.00;1737364;82;21078;-48
2022/10/27 11:43:47;;;;;;;8.30;3.58;;;;;;;13.79;83.40;100915.86;1737271;82;21077;-39
2022/10/27 11:46:26;;;;;;;4.47;3.27;;;;;;;13.79;83.80;100919.81;1674019;85;21120;-41
2022/10/27 11:49:04;;;;;;;6.67;3.47;;;;;;;13.80;84.07;100920.72;1673959;86;21117;-40
2022/10/27 11:51:36;;;;;;;6.92;3.70;;;;;;;13.81;82.72;100923.77;1673434;85;21117;-48
2022/10/27 11:54:03;;;;;;;8.65;3.35;;;;;;;13.78;82.89;100915.44;1673589;86;21049;-39
2022/10/27 11:56:47;;;;;;;12.50;3.60;;;;;;;13.77;83.32;100918.08;1736724;82;20987;-48
2022/10/27 11:59:53;;;;;;;6.95;3.27;;;;;;;13.76;83.53;100921.16;1736982;82;21045;-40
2022/10/27 12:02:51;;;;;;;5.22;3.27;;;;;;;13.77;82.93;100931.23;1736826;82;21113;-39
2022/10/27 12:05:28;;;;;;;7.25;3.62;;;;;;;13.72;82.67;100927.73;1736920;82;21065;-40
2022/10/27 12:08:35;;;;;;;4.45;3.00;;;;;;;13.68;82.99;100925.98;1737501;82;21065;-47
2022/10/27 12:11:25;;;;;;;4.72;2.98;;;;;;;13.65;83.13;100932.14;1737489;82;21010;-49
2022/10/27 12:14:22;;;;;;;7.53;3.05;;;;;;;13.62;83.32;100924.69;1737312;82;21085;-48
2022/10/27 12:17:04;;;;;;;5.08;3.30;;;;;;;13.57;83.09;100924.28;1674025;85;21130;-40
2022/10/27 12:19:43;;;;;;;9.20;3.08;;;;;;;13.55;83.80;100927.77;1663984;85;21046;-48
2022/10/27 12:22:21;;;;;;;5.72;3.20;;;;;;;13.53;84.35;100925.59;1740733;82;21058;-48
2022/10/27 12:24:56;;;;;;;5.55;3.25;;;;;;;13.52;84.05;100935.23;1737430;82;21086;-45
2022/10/27 12:27:39;;;;;;;6.05;3.52;;;;;;;13.48;82.42;100932.61;1719201;82;21058;-39
2022/10/27 12:30:16;;;;;;;4.67;2.77;;;;;;;13.45;82.72;100937.86;1674536;86;21430;-39
2022/10/27 12:33:04;;;;;;;4.67;3.10;;;;;;;13.41;82.27;100942.27;1673959;85;21110;-47
2022/10/27 12:35:57;;;;;;;5.05;3.02;;;;;;;13.39;82.09;100937.43;1680421;85;21584;-38
2022/10/27 12:38:35;;;;;;;4.15;2.72;;;;;;;13.39;82.24;100941.81;1681568;85;21053;-48
2022/10/27 12:41:28;;;;;;;4.90;2.80;;;;;;;13.39;82.49;100943.13;1680824;85;21560;-39
2022/10/27 12:44:22;;;;;;;5.80;3.20;;;;;;;13.38;82.66;100944.02;1690077;84;21057;-48
2022/10/27 12:47:14;;;;;;;5.37;3.20;;;;;;;13.38;83.17;100939.63;1689889;85;21145;-47
2022/10/27 12:49:55;;;;;;;5.80;3.40;;;;;;;13.40;83.77;100944.91;1689837;84;21109;-40
2022/10/27 12:52:24;;;;;;;5.53;3.17;;;;;;;13.40;83.42;100947.53;1689520;85;21097;-40
2022/10/27 12:55:05;;;;;;;4.72;3.70;;;;;;;13.39;83.41;100953.64;1687447;85;21077;-39
2022/10/27 12:57:50;;;;;;;5.72;3.27;;;;;;;13.39;83.63;100956.27;1676956;85;21074;-39
2022/10/27 13:00:21;;;;;;;4.47;3.12;;;;;;;13.40;83.67;100954.11;1676274;85;21101;-47
2022/10/27 13:03:24;;;;;;;5.45;3.50;;;;;;;13.44;83.75;100961.09;1678100;85;21047;-42
2022/10/27 13:06:22;;;;;;;8.80;3.05;;;;;;;13.45;83.21;100961.52;1676010;85;21593;-39
2022/10/27 13:09:25;;;;;;;8.40;3.62;;;;;;;13.49;83.60;100963.27;1678893;85;21011;-47
2022/10/27 13:12:24;;;;;;;6.22;3.98;;;;;;;13.51;82.66;100962.41;1678913;85;21755;-38
2022/10/27 13:15:19;;;;;;;7.87;3.62;;;;;;;13.51;81.16;100959.78;1676800;85;21534;-39
2022/10/27 13:18:12;;;;;;;6.05;4.08;;;;;;;13.51;80.46;100968.98;1678675;85;21090;-49
2022/10/27 13:21:01;;;;;;;7.22;3.45;;;;;;;13.49;81.04;100963.27;1681591;85;21071;-44
2022/10/27 13:24:05;;;;;;;6.37;3.60;;;;;;;13.46;80.04;100974.69;1684724;85;21144;-48
2022/10/27 13:26:55;;;;;;;6.95;3.92;;;;;;;13.43;79.88;100967.23;1684554;85;21040;-39
2022/10/27 13:29:45;;;;;;;5.83;3.80;;;;;;;13.40;80.38;100973.81;1683684;85;21115;-41
2022/10/27 13:32:24;;;;;;;6.03;3.60;;;;;;;13.38;80.16;100982.12;1683434;85;21623;-39
2022/10/27 13:35:05;;;;;;;5.75;3.20;;;;;;;13.35;80.23;100984.33;1683245;85;21153;-48
2022/10/27 13:37:52;;;;;;;6.80;3.77;;;;;;;13.33;79.93;100982.11;1683569;85;21077;-39
2022/10/27 13:40:29;;;;;;;5.22;3.47;;;;;;;13.30;79.88;100993.52;1661871;85;21100;-39
2022/10/27 13:42:59;;;;;;;5.50;3.35;;;;;;;13.29;80.01;100986.95;1683608;85;21084;-46
2022/10/27 13:45:39;;;;;;;5.70;3.10;;;;;;;13.26;78.15;101000.95;1680192;85;21105;-39
2022/10/27 13:48:14;;;;;;;6.25;3.42;;;;;;;13.25;77.36;100994.39;1683812;85;21140;-40
2022/10/27 13:50:44;;;;;;;7.22;3.45;;;;;;;13.23;76.01;100993.53;1683348;85;21120;-48
2022/10/27 13:53:20;;;;;;;8.35;2.90;;;;;;;13.22;75.52;100994.38;1683140;85;21089;-41
2022/10/27 13:56:15;;;;;;;9.48;3.15;;;;;;;13.23;74.90;100997.47;1683094;85;21108;-39
2022/10/27 13:59:02;;;;;;;4.30;2.70;;;;;;;13.27;74.10;100993.94;1695394;84;21013;-38
2022/10/27 14:01:53;;;;;;;6.30;2.87;;;;;;;13.26;74.38;101000.95;1695524;84;21553;-46
2022/10/27 14:04:43;;;;;;;6.45;3.10;;;;;;;13.21;73.89;101004.45;1695855;84;21073;-48
2022/10/27 14:07:11;;;;;;;3.12;2.70;;;;;;;13.13;74.38;101002.23;1728460;83;21052;-39
2022/10/27 14:09:49;;;;;;;2.90;2.60;;;;;;;13.06;74.96;101000.05;1730810;83;22650;-40
2022/10/27 14:12:34;;;;;;;6.85;3.10;;;;;;;13.00;75.61;101007.48;1730438;83;21037;-47
2022/10/27 14:15:18;;;;;;;3.52;2.95;;;;;;;12.96;76.20;101003.53;1730882;83;21068;-38
2022/10/27 14:17:46;;;;;;;3.27;2.83;;;;;;;12.91;76.84;101000.02;1730514;83;21159;-38
2022/10/27 14:20:26;;;;;;;4.53;3.47;;;;;;;12.87;77.48;101007.03;1730716;83;21619;-38
2022/10/27 14:23:11;;;;;;;5.08;3.17;;;;;;;12.84;78.01;100999.58;1730544;83;21135;-39
2022/10/27 14:25:38;;;;;;;6.30;3.20;;;;;;;12.79;78.52;101006.13;1730549;83;21598;-47
2022/10/27 14:28:19;;;;;;;8.15;3.90;;;;;;;12.77;78.97;101000.88;1730599;83;21578;-40
2022/10/27 14:31:09;;;;;;;4.00;3.08;;;;;;;12.74;79.35;101003.48;1730711;83;21072;-40
2022/10/27 14:33:35;;;;;;;5.25;3.52;;;;;;;12.71;79.59;101002.18;1730406;83;21788;-48
2022/10/27 14:36:32;;;;;;;5.22;2.60;;;;;;;12.69;80.16;101009.59;1712703;83;21109;-39
2022/10/27 14:39:24;;;;;;;5.05;2.65;;;;;;;12.66;80.57;101000.41;1709396;83;21066;-47
2022/10/27 14:41:53;;;;;;;5.27;2.93;;;;;;;12.62;80.93;101007.39;1709851;84;21120;-38
2022/10/27 14:44:30;;;;;;;3.75;2.75;;;;;;;12.59;81.31;101004.77;1709607;84;21133;-39
2022/10/27 14:46:59;;;;;;;4.87;2.58;;;;;;;12.57;81.73;101006.50;1709742;84;21110;-40
2022/10/27 14:49:40;;;;;;;3.75;2.62;;;;;;;12.55;82.12;101012.19;1709813;82;21064;-50
2022/10/27 14:52:08;;;;;;;5.85;3.00;;;;;;;12.51;82.44;101007.79;1709653;83;21068;-48
2022/10/27 14:54:35;;;;;;;6.78;2.92;;;;;;;12.49;82.77;101001.23;1709634;84;21607;-39
2022/10/27 14:57:27;;;;;;;6.80;3.30;;;;;;;12.48;83.12;101011.73;1709355;84;21030;-40
2022/10/27 14:59:54;;;;;;;6.80;4.50;;;;;;;12.45;83.41;101007.33;1709379;84;21583;-49
2022/10/27 15:02:22;;;;;;;5.55;3.92;;;;;;;12.43;83.81;101006.46;1709284;84;21108;-48
2022/10/27 15:04:49;;;;;;;5.92;3.67;;;;;;;12.42;84.09;101006.47;1709071;84;21133;-40
2022/10/27 15:07:19;;;;;;;9.00;3.40;;;;;;;12.40;84.41;101009.50;1709309;84;21097;-40
2022/10/27 15:09:49;;;;;;;6.20;3.35;;;;;;;12.37;84.74;101008.19;1709364;84;21009;-40
2022/10/27 15:12:31;;;;;;;9.65;4.28;;;;;;;12.35;85.06;101014.75;1709290;84;21467;-48
2022/10/27 15:15:01;;;;;;;8.58;4.10;;;;;;;12.34;85.36;101006.85;1709499;84;21001;-48
2022/10/27 15:17:35;;;;;;;5.87;3.75;;;;;;;12.33;85.64;101010.35;1712696;83;21025;-46
2022/10/27 15:20:05;;;;;;;4.70;3.65;;;;;;;12.30;85.91;101019.09;1709332;83;21556;-48
2022/10/27 15:22:33;;;;;;;9.03;3.40;;;;;;;12.28;86.21;101010.33;1713039;83;21065;-49
2022/10/27 15:25:00;;;;;;;4.97;3.20;;;;;;;12.26;86.46;101014.70;1709462;84;21077;-48
2022/10/27 15:27:32;;;;;;;5.83;3.33;;;;;;;12.24;86.70;101017.33;1709518;84;21116;-40
2022/10/27 15:29:56;;;;;;;5.67;3.17;;;;;;;12.23;86.80;101021.23;1709453;83;21073;-48
2022/10/27 15:32:37;;;;;;;8.07;4.80;;;;;;;12.22;86.86;101024.73;1709350;84;21137;-47
2022/10/27 15:35:01;;;;;;;11.18;5.15;;;;;;;12.20;86.79;101019.92;1709183;83;21112;-46
2022/10/27 15:37:31;;;;;;;8.88;4.50;;;;;;;12.19;87.07;101022.98;1709622;84;21033;-48
2022/10/27 15:40:20;;;;;;;5.70;3.20;;;;;;;12.19;87.24;101029.98;1709621;84;21108;-47
2022/10/27 15:42:47;;;;;;;8.58;5.28;;;;;;;12.17;87.42;101033.00;1709470;84;21053;-47
2022/10/27 15:45:40;;;;;;;8.03;5.50;;;;;;;12.16;87.70;101035.19;1709594;84;21065;-48
2022/10/27 15:48:33;;;;;;;8.18;5.60;;;;;;;12.16;88.08;101032.13;1709500;84;21080;-40
2022/10/27 15:51:13;;;;;;;7.50;4.50;;;;;;;12.14;88.23;101035.62;1709657;84;21101;-40
2022/10/27 15:53:50;;;;;;;8.93;4.55;;;;;;;12.13;88.50;101034.76;1709716;84;21022;-40
2022/10/27 15:56:27;;;;;;;8.03;4.45;;;;;;;12.12;88.70;101036.06;1709809;84;21052;-49
2022/10/27 15:59:21;;;;;;;7.40;3.70;;;;;;;12.10;88.83;101040.41;1709616;84;21057;-40
2022/10/27 16:01:52;;;;;;;4.90;2.87;;;;;;;12.08;88.93;101041.72;1709885;84;21029;-48
2022/10/27 16:04:36;;;;;;;4.80;2.95;;;;;;;12.06;88.87;101038.62;1709906;83;21096;-48
2022/10/27 16:07:17;;;;;;;3.95;2.90;;;;;;;12.04;88.97;101043.00;1709812;83;21002;-40
2022/10/27 16:09:47;;;;;;;5.33;2.80;;;;;;;12.02;89.00;101049.98;1709692;84;21132;-49
2022/10/27 16:12:38;;;;;;;3.58;2.90;;;;;;;11.99;88.96;101049.08;1709817;83;21698;-41
2022/10/27 16:15:15;;;;;;;4.00;2.80;;;;;;;11.98;88.93;101053.02;1709784;83;21057;-47
2022/10/27 16:17:45;;;;;;;6.10;3.45;;;;;;;11.97;88.88;101061.76;1709780;84;21485;-48
2022/10/27 16:20:22;;;;;;;5.62;2.90;;;;;;;11.95;88.82;101060.44;1709827;84;21100;-47
2022/10/27 16:22:48;;;;;;;7.47;5.60;;;;;;;11.94;88.83;101062.62;1709638;84;21068;-48
2022/10/27 16:25:18;;;;;;;23.47;13.10;;;;;;;11.94;88.63;101062.62;1709348;84;21025;-40
2022/10/27 16:27:44;;;;;;;14.68;7.45;;;;;;;11.95;88.73;101066.12;1709687;84;21076;-48
2022/10/27 16:30:19;;;;;;;8.78;4.75;;;;;;;11.94;88.76;101073.12;1709650;84;21049;-49
2022/10/27 16:32:47;;;;;;;17.98;8.80;;;;;;;11.95;88.84;101075.30;1709778;84;21131;-49
2022/10/27 16:35:14;;;;;;;18.50;9.00;;;;;;;11.95;88.95;101075.30;1709649;83;21066;-48
2022/10/27 16:37:43;;;;;;;17.00;9.50;;;;;;;11.93;89.08;101078.33;1709634;84;21101;-49
2022/10/27 16:40:14;;;;;;;9.88;6.78;;;;;;;11.92;89.14;101082.70;1709632;84;21556;-48
2022/10/27 16:42:46;;;;;;;7.47;4.72;;;;;;;11.91;89.19;101077.02;1709268;84;21045;-48
2022/10/27 16:45:15;;;;;;;7.50;4.37;;;;;;;11.90;89.29;101081.82;1709468;83;21026;-45
2022/10/27 16:47:43;;;;;;;7.08;3.72;;;;;;;11.90;89.33;101088.81;1709282;83;21119;-49
2022/10/27 16:50:09;;;;;;;7.08;4.12;;;;;;;11.88;89.33;101087.47;1709342;84;21068;-48
2022/10/27 16:52:36;;;;;;;6.33;4.40;;;;;;;11.88;89.34;101087.91;1709093;84;21064;-48
2022/10/27 16:55:08;;;;;;;5.78;4.42;;;;;;;11.87;89.30;101090.09;1709448;84;21093;-48
2022/10/27 16:57:32;;;;;;;7.97;4.42;;;;;;;11.86;89.31;101094.45;1709373;84;21077;-48
2022/10/27 16:59:59;;;;;;;5.97;4.17;;;;;;;11.86;89.30;101096.20;1709463;84;21532;-49
2022/10/27 17:02:25;;;;;;;8.00;4.95;;;;;;;11.85;89.40;101097.08;1709818;84;21029;-48
2022/10/27 17:04:52;;;;;;;8.18;5.83;;;;;;;11.85;89.52;101091.39;1709756;84;21025;-48
2022/10/27 17:07:19;;;;;;;8.03;4.25;;;;;;;11.84;89.66;101099.26;1709535;84;21089;-48
2022/10/27 17:09:45;;;;;;;6.92;3.45;;;;;;;11.84;89.81;101096.20;1709817;84;21084;-42
2022/10/27 17:12:13;;;;;;;6.10;2.62;;;;;;;11.83;89.82;101102.31;1709617;84;21116;-48
2022/10/27 17:14:40;;;;;;;5.92;3.27;;;;;;;11.81;89.88;101098.78;1709941;83;21556;-38
2022/10/27 17:17:07;;;;;;;5.45;3.30;;;;;;;11.80;89.94;101104.86;1711666;82;21584;-39
2022/10/27 17:19:34;;;;;;;4.67;3.08;;;;;;;11.79;89.94;101105.73;1738927;82;21952;-40
2022/10/27 17:22:01;;;;;;;5.78;3.50;;;;;;;11.79;89.93;101102.23;1738914;82;21058;-48
2022/10/27 17:24:27;;;;;;;4.60;3.25;;;;;;;11.79;89.92;101104.86;1738997;82;21047;-39
2022/10/27 17:26:54;;;;;;;5.47;3.15;;;;;;;11.79;89.87;101111.41;1739105;82;21065;-48
2022/10/27 17:29:22;;;;;;;5.00;3.37;;;;;;;11.77;89.92;101109.19;1739040;82;21572;-40
2022/10/27 17:31:49;;;;;;;8.95;3.45;;;;;;;11.76;90.01;101108.75;1738998;82;21069;-45
2022/10/27 17:34:17;;;;;;;5.70;3.47;;;;;;;11.76;90.13;101106.13;1738895;82;21006;-48
2022/10/27 17:36:43;;;;;;;6.15;3.02;;;;;;;11.75;90.21;101109.19;1749356;81;21131;-40
2022/10/27 17:39:10;;;;;;;4.03;3.10;;;;;;;11.75;90.35;101116.18;1752978;82;21060;-47
2022/10/27 17:41:38;;;;;;;4.72;3.22;;;;;;;11.73;90.54;101105.25;1752930;82;21956;-48
2022/10/27 17:44:05;;;;;;;6.72;3.85;;;;;;;11.73;90.63;101109.19;1752990;82;21033;-39
2022/10/27 17:46:33;;;;;;;6.92;3.30;;;;;;;11.73;90.74;101111.80;1752967;82;21041;-48
2022/10/27 17:49:00;;;;;;;9.18;3.52;;;;;;;11.72;90.86;101113.11;1752967;82;21084;-48
2022/10/27 17:51:29;;;;;;;7.62;3.33;;;;;;;11.71;90.95;101121.41;1752887;82;21127;-39
2022/10/27 17:53:57;;;;;;;6.90;3.20;;;;;;;11.70;91.03;101117.01;1753083;82;21064;-48
2022/10/27 17:56:28;;;;;;;6.85;3.37;;;;;;;11.68;91.13;101110.88;1753051;82;21092;-40
2022/10/27 17:58:55;;;;;;;3.58;2.65;;;;;;;11.68;91.19;101117.44;1753337;81;20994;-40
2022/10/27 18:01:27;;;;;;;6.42;3.80;;;;;;;11.67;91.34;101111.75;1752821;82;21362;-49
2022/10/27 18:03:55;;;;;;;8.23;5.03;;;;;;;11.66;91.35;101113.06;1752817;82;21092;-41
2022/10/27 18:06:24;;;;;;;9.00;3.62;;;;;;;11.64;91.41;101109.53;1753012;82;21060;-40
2022/10/27 18:08:58;;;;;;;9.10;3.47;;;;;;;11.63;91.30;101116.52;1753193;82;21021;-41
2022/10/27 18:11:27;;;;;;;6.78;3.90;;;;;;;11.63;91.39;101119.58;1753048;82;21055;-41
2022/10/27 18:13:55;;;;;;;6.72;4.22;;;;;;;11.63;91.39;101122.19;1753173;82;21467;-44
2022/10/27 18:16:25;;;;;;;4.58;3.65;;;;;;;11.62;91.42;101124.38;1752918;82;21132;-48
2022/10/27 18:19:01;;;;;;;12.93;3.77;;;;;;;11.61;91.36;101119.57;1752775;82;21592;-47
2022/10/27 18:21:30;;;;;;;6.10;3.30;;;;;;;11.62;91.38;101123.94;1753087;82;21104;-40
2022/10/27 18:24:00;;;;;;;6.25;3.47;;;;;;;11.62;91.27;101125.25;1753153;82;21595;-39
2022/10/27 18:26:29;;;;;;;6.58;3.58;;;;;;;11.60;91.34;101125.68;1752953;82;21055;-39
2022/10/27 18:28:56;;;;;;;4.15;3.10;;;;;;;11.61;91.39;101130.05;1753213;82;21017;-39
2022/10/27 18:31:25;;;;;;;4.55;3.08;;;;;;;11.60;91.43;101127.42;1752887;82;21021;-49
2022/10/27 18:33:52;;;;;;;6.83;4.05;;;;;;;11.59;91.43;101119.97;1753125;82;20969;-48
2022/10/27 18:36:21;;;;;;;5.83;3.62;;;;;;;11.59;91.31;101126.52;1746438;81;21448;-40
2022/10/27 18:38:53;;;;;;;4.10;3.10;;;;;;;11.58;91.08;101123.89;1739076;82;21037;-40
2022/10/27 18:41:21;;;;;;;7.33;3.72;;;;;;;11.58;91.08;101122.58;1739072;82;21576;-39
2022/10/27 18:43:50;;;;;;;6.62;3.50;;;;;;;11.57;90.86;101123.45;1738870;82;21065;-40
2022/10/27 18:46:18;;;;;;;9.00;3.72;;;;;;;11.56;90.80;101125.20;1738848;82;21528;-48
2022/10/27 18:48:52;;;;;;;5.90;3.50;;;;;;;11.56;90.63;101130.88;1739222;82;21025;-39
2022/10/27 18:51:20;;;;;;;4.40;2.90;;;;;;;11.56;90.52;101126.94;1738927;82;21311;-39
2022/10/27 18:53:47;;;;;;;9.18;3.62;;;;;;;11.55;90.36;101134.36;1739107;82;21093;-48
2022/10/27 18:56:14;;;;;;;7.65;3.33;;;;;;;11.54;90.12;101132.58;1683664;84;21594;-47
2022/10/27 18:58:41;;;;;;;4.58;2.80;;;;;;;11.52;90.23;101131.70;1703902;84;21425;-48
2022/10/27 19:01:10;;;;;;;5.87;3.35;;;;;;;11.53;90.30;101136.95;1698927;84;21108;-39
2022/10/27 19:03:38;;;;;;;7.65;3.20;;;;;;;11.51;90.32;101138.69;1698811;84;21794;-40
2022/10/27 19:06:07;;;;;;;6.85;3.40;;;;;;;11.50;90.41;101141.30;1699135;84;21076;-40
2022/10/27 19:08:34;;;;;;;6.37;3.67;;;;;;;11.48;90.43;101133.84;1699069;84;21073;-48
2022/10/27 19:11:10;;;;;;;11.55;3.90;;;;;;;11.46;90.51;101133.83;1698842;84;21125;-50
2022/10/27 19:13:37;;;;;;;4.65;3.55;;;;;;;11.44;90.55;101135.13;1698874;84;21157;-40
2022/10/27 19:16:12;;;;;;;6.10;3.20;;;;;;;11.43;90.67;101139.94;1698862;84;21576;-49
2022/10/27 19:18:38;;;;;;;7.10;3.35;;;;;;;11.43;90.65;101144.30;1698441;84;21077;-48
2022/10/27 19:21:07;;;;;;;4.45;2.90;;;;;;;11.42;90.64;101149.06;1699075;84;21089;-39
2022/10/27 19:23:35;;;;;;;5.47;3.67;;;;;;;11.41;90.73;101145.56;1698875;84;21052;-42